createdAt,value
2018-09-29T00:00:02.493Z,13.7
2018-09-29T00:01:02.381Z,13.67
2018-09-29T00:02:02.796Z,13.7
2018-09-29T00:03:02.559Z,13.72
2018-09-29T00:04:02.502Z,13.66
2018-09-29T00:05:02.399Z,13.64
2018-09-29T00:06:02.488Z,13.66
2018-09-29T00:07:02.636Z,13.64
2018-09-29T00:08:02.785Z,13.69
2018-09-29T00:09:02.457Z,13.67
2018-09-29T00:10:02.567Z,13.64
2018-09-29T00:11:02.377Z,13.63
2018-09-29T00:12:02.374Z,13.57
2018-09-29T00:13:02.364Z,13.56
2018-09-29T00:14:02.444Z,13.6
2018-09-29T00:15:03.209Z,13.57
2018-09-29T00:16:02.413Z,13.49
2018-09-29T00:17:02.485Z,13.47
2018-09-29T00:18:02.482Z,13.46
2018-09-29T00:19:02.413Z,13.49
2018-09-29T00:20:02.362Z,13.49
2018-09-29T00:21:02.333Z,13.52
2018-09-29T00:22:02.357Z,13.5
2018-09-29T00:23:02.325Z,13.5
2018-09-29T00:24:02.432Z,13.5
2018-09-29T00:25:02.790Z,13.39
2018-09-29T00:26:02.395Z,13.39
2018-09-29T00:27:02.494Z,13.41
2018-09-29T00:28:02.429Z,13.31
2018-09-29T00:29:02.501Z,13.21
2018-09-29T00:30:02.332Z,13.21
2018-09-29T00:31:02.341Z,13.08
2018-09-29T00:32:02.461Z,13.07
2018-09-29T00:33:02.354Z,13.06
2018-09-29T00:34:02.768Z,12.97
2018-09-29T00:35:02.364Z,13.03
2018-09-29T00:36:02.321Z,13.07
2018-09-29T00:37:02.338Z,13.08
2018-09-29T00:38:02.462Z,13.11
2018-09-29T00:39:02.317Z,13.13
2018-09-29T00:40:02.372Z,13.13
2018-09-29T00:41:02.590Z,13.01
2018-09-29T00:42:02.322Z,13.03
2018-09-29T00:43:02.319Z,13.08
2018-09-29T00:44:02.315Z,13.1
2018-09-29T00:45:02.595Z,13.13
2018-09-29T00:46:02.312Z,13.11
2018-09-29T00:47:02.488Z,13.1
2018-09-29T00:48:02.462Z,13
2018-09-29T00:49:02.364Z,13
2018-09-29T00:50:02.319Z,13.01
2018-09-29T00:51:02.441Z,12.97
2018-09-29T00:52:02.583Z,12.93
2018-09-29T00:53:02.300Z,12.86
2018-09-29T00:54:02.276Z,12.79
2018-09-29T00:55:02.359Z,12.72
2018-09-29T00:56:02.346Z,12.73
2018-09-29T00:57:02.399Z,12.79
2018-09-29T00:58:02.326Z,12.53
2018-09-29T00:59:02.383Z,12.49
2018-09-29T01:00:02.277Z,12.55
2018-09-29T01:01:02.452Z,12.59
2018-09-29T01:02:02.339Z,12.65
2018-09-29T01:03:02.422Z,12.66
2018-09-29T01:04:02.714Z,12.69
2018-09-29T01:05:02.529Z,12.7
2018-09-29T01:06:02.348Z,12.72
2018-09-29T01:07:02.322Z,12.73
2018-09-29T01:08:02.270Z,12.46
2018-09-29T01:09:02.290Z,12.25
2018-09-29T01:10:02.280Z,12.18
2018-09-29T01:11:02.278Z,12
2018-09-29T01:12:02.276Z,12.05
2018-09-29T01:13:02.273Z,12.11
2018-09-29T01:14:02.286Z,12.13
2018-09-29T01:15:02.258Z,12.13
2018-09-29T01:16:02.282Z,12
2018-09-29T01:17:02.375Z,11.86
2018-09-29T01:18:02.540Z,11.79
2018-09-29T01:19:02.297Z,11.83
2018-09-29T01:20:02.281Z,11.93
2018-09-29T01:21:02.256Z,11.96
2018-09-29T01:22:02.261Z,11.98
2018-09-29T01:23:02.282Z,12.01
2018-09-29T01:24:02.254Z,11.98
2018-09-29T01:25:02.255Z,11.84
2018-09-29T01:26:02.243Z,11.77
2018-09-29T01:27:02.243Z,11.86
2018-09-29T01:28:02.286Z,11.76
2018-09-29T01:29:02.294Z,11.76
2018-09-29T01:30:02.297Z,11.73
2018-09-29T01:31:02.392Z,11.68
2018-09-29T01:32:02.489Z,11.7
2018-09-29T01:33:02.440Z,11.7
2018-09-29T01:34:02.400Z,11.73
2018-09-29T01:35:02.376Z,11.8
2018-09-29T01:36:02.368Z,11.84
2018-09-29T01:37:02.213Z,11.83
2018-09-29T01:38:02.768Z,11.89
2018-09-29T01:39:02.281Z,11.94
2018-09-29T01:40:02.312Z,11.96
2018-09-29T01:41:02.319Z,11.98
2018-09-29T01:42:02.458Z,12.03
2018-09-29T01:43:02.222Z,12.04
2018-09-29T01:44:02.224Z,12.03
2018-09-29T01:45:02.375Z,11.98
2018-09-29T01:46:02.280Z,11.96
2018-09-29T01:47:02.233Z,11.87
2018-09-29T01:48:02.312Z,11.77
2018-09-29T01:49:02.668Z,11.72
2018-09-29T01:50:02.385Z,11.75
2018-09-29T01:51:02.531Z,11.8
2018-09-29T01:52:02.220Z,11.68
2018-09-29T01:53:02.650Z,11.75
2018-09-29T01:54:02.277Z,11.62
2018-09-29T01:55:02.446Z,11.62
2018-09-29T01:56:02.449Z,11.45
2018-09-29T01:57:02.490Z,11.38
2018-09-29T01:58:02.382Z,11.34
2018-09-29T01:59:02.248Z,11.44
2018-09-29T02:00:02.323Z,11.44
2018-09-29T02:01:02.327Z,11.51
2018-09-29T02:02:02.292Z,11.51
2018-09-29T02:03:02.380Z,11.54
2018-09-29T02:04:02.234Z,11.56
2018-09-29T02:05:02.323Z,11.59
2018-09-29T02:06:02.190Z,11.64
2018-09-29T02:07:02.418Z,11.62
2018-09-29T02:08:02.713Z,11.65
2018-09-29T02:09:02.232Z,11.65
2018-09-29T02:10:02.344Z,11.64
2018-09-29T02:11:02.290Z,11.65
2018-09-29T02:12:02.285Z,11.62
2018-09-29T02:13:02.210Z,11.41
2018-09-29T02:14:02.269Z,11.35
2018-09-29T02:15:02.536Z,11.22
2018-09-29T02:16:02.323Z,11.27
2018-09-29T02:17:02.270Z,11.06
2018-09-29T02:18:02.178Z,11.12
2018-09-29T02:19:02.611Z,11.14
2018-09-29T02:20:02.169Z,11.1
2018-09-29T02:21:02.639Z,11.15
2018-09-29T02:22:02.253Z,11.21
2018-09-29T02:23:02.157Z,11.21
2018-09-29T02:24:02.179Z,11.1
2018-09-29T02:25:02.345Z,11.15
2018-09-29T02:26:02.163Z,11.15
2018-09-29T02:27:02.196Z,11.1
2018-09-29T02:28:02.261Z,11.14
2018-09-29T02:29:02.377Z,11.15
2018-09-29T02:30:02.206Z,11.15
2018-09-29T02:31:02.154Z,11.08
2018-09-29T02:32:02.148Z,11.11
2018-09-29T02:33:02.402Z,11.17
2018-09-29T02:34:02.142Z,11.04
2018-09-29T02:35:02.203Z,11.06
2018-09-29T02:36:02.149Z,11.07
2018-09-29T02:37:02.274Z,11.11
2018-09-29T02:38:02.158Z,11.14
2018-09-29T02:39:02.135Z,11.18
2018-09-29T02:40:02.131Z,11.24
2018-09-29T02:41:02.144Z,11.15
2018-09-29T02:42:02.112Z,11.15
2018-09-29T02:43:04.503Z,11.17
2018-09-29T02:44:02.135Z,11.2
2018-09-29T02:45:02.146Z,11.06
2018-09-29T02:46:02.129Z,11.07
2018-09-29T02:47:02.153Z,11.12
2018-09-29T02:48:02.208Z,11.04
2018-09-29T02:49:02.508Z,11.03
2018-09-29T02:50:02.281Z,11.07
2018-09-29T02:51:02.239Z,11.04
2018-09-29T02:52:02.213Z,10.99
2018-09-29T02:53:02.169Z,11.01
2018-09-29T02:54:02.130Z,11.01
2018-09-29T02:55:02.355Z,10.97
2018-09-29T02:56:02.291Z,10.99
2018-09-29T02:57:02.145Z,10.93
2018-09-29T02:58:02.113Z,10.9
2018-09-29T02:59:02.091Z,10.87
2018-09-29T03:00:02.127Z,10.83
2018-09-29T03:01:02.153Z,10.72
2018-09-29T03:02:02.113Z,10.72
2018-09-29T03:03:02.177Z,10.69
2018-09-29T03:04:02.310Z,10.72
2018-09-29T03:05:02.654Z,10.78
2018-09-29T03:06:02.344Z,10.79
2018-09-29T03:07:02.279Z,10.79
2018-09-29T03:08:02.527Z,10.68
2018-09-29T03:09:02.366Z,10.71
2018-09-29T03:10:02.075Z,10.71
2018-09-29T03:11:02.150Z,10.75
2018-09-29T03:12:02.100Z,10.75
2018-09-29T03:13:02.062Z,10.76
2018-09-29T03:14:02.195Z,10.79
2018-09-29T03:15:02.230Z,10.8
2018-09-29T03:16:02.071Z,10.76
2018-09-29T03:17:02.203Z,10.79
2018-09-29T03:18:02.173Z,10.82
2018-09-29T03:19:02.473Z,10.79
2018-09-29T03:20:02.352Z,10.75
2018-09-29T03:21:02.146Z,10.78
2018-09-29T03:22:02.093Z,10.79
2018-09-29T03:23:02.350Z,10.82
2018-09-29T03:24:02.037Z,10.84
2018-09-29T03:25:02.153Z,10.87
2018-09-29T03:26:02.495Z,10.8
2018-09-29T03:27:02.356Z,10.82
2018-09-29T03:28:02.179Z,10.76
2018-09-29T03:29:02.374Z,10.76
2018-09-29T03:30:02.107Z,10.76
2018-09-29T03:31:02.094Z,10.82
2018-09-29T03:32:02.161Z,10.87
2018-09-29T03:33:02.104Z,10.84
2018-09-29T03:34:02.309Z,10.82
2018-09-29T03:35:02.078Z,10.78
2018-09-29T03:36:02.227Z,10.76
2018-09-29T03:37:02.583Z,10.78
2018-09-29T03:38:02.065Z,10.71
2018-09-29T03:39:02.187Z,10.75
2018-09-29T03:40:02.088Z,10.76
2018-09-29T03:41:02.110Z,10.78
2018-09-29T03:42:02.146Z,10.76
2018-09-29T03:43:02.283Z,10.79
2018-09-29T03:44:02.612Z,10.86
2018-09-29T03:45:02.137Z,10.84
2018-09-29T03:46:02.087Z,10.89
2018-09-29T03:47:02.093Z,10.87
2018-09-29T03:48:02.404Z,10.89
2018-09-29T03:49:02.315Z,10.78
2018-09-29T03:50:02.183Z,10.76
2018-09-29T03:51:02.435Z,10.64
2018-09-29T03:52:02.044Z,10.66
2018-09-29T03:53:02.102Z,10.71
2018-09-29T03:54:02.093Z,10.75
2018-09-29T03:55:02.127Z,10.76
2018-09-29T03:56:02.064Z,10.83
2018-09-29T03:57:02.056Z,10.82
2018-09-29T03:58:02.051Z,10.8
2018-09-29T03:59:02.093Z,10.79
2018-09-29T04:00:02.065Z,10.65
2018-09-29T04:01:02.039Z,10.62
2018-09-29T04:02:02.086Z,10.66
2018-09-29T04:03:02.038Z,10.71
2018-09-29T04:04:02.039Z,10.65
2018-09-29T04:05:02.081Z,10.62
2018-09-29T04:06:02.098Z,10.69
2018-09-29T04:07:02.044Z,10.66
2018-09-29T04:08:02.013Z,10.69
2018-09-29T04:09:02.057Z,10.69
2018-09-29T04:10:02.140Z,10.68
2018-09-29T04:11:02.043Z,10.65
2018-09-29T04:12:02.028Z,10.59
2018-09-29T04:13:02.081Z,10.53
2018-09-29T04:14:02.414Z,10.45
2018-09-29T04:15:02.300Z,10.48
2018-09-29T04:16:02.007Z,10.55
2018-09-29T04:17:02.090Z,10.56
2018-09-29T04:18:02.212Z,10.55
2018-09-29T04:19:01.979Z,10.48
2018-09-29T04:20:02.331Z,10.52
2018-09-29T04:21:02.016Z,10.48
2018-09-29T04:22:02.023Z,10.53
2018-09-29T04:23:02.241Z,10.41
2018-09-29T04:24:02.039Z,10.38
2018-09-29T04:25:02.376Z,10.44
2018-09-29T04:26:02.142Z,10.44
2018-09-29T04:27:02.111Z,10.34
2018-09-29T04:28:02.116Z,10.31
2018-09-29T04:29:02.045Z,10.39
2018-09-29T04:30:02.073Z,10.28
2018-09-29T04:31:02.025Z,10.25
2018-09-29T04:32:02.762Z,10.21
2018-09-29T04:33:02.174Z,10.14
2018-09-29T04:34:02.208Z,10.23
2018-09-29T04:35:02.066Z,10.27
2018-09-29T04:36:02.080Z,10.32
2018-09-29T04:37:02.007Z,10.31
2018-09-29T04:38:01.981Z,10.39
2018-09-29T04:39:02.037Z,10.3
2018-09-29T04:40:02.266Z,10.31
2018-09-29T04:41:02.215Z,10.28
2018-09-29T04:42:02.076Z,10.3
2018-09-29T04:43:02.400Z,10.35
2018-09-29T04:44:02.078Z,10.38
2018-09-29T04:45:02.200Z,10.34
2018-09-29T04:46:01.998Z,10.34
2018-09-29T04:47:02.052Z,10.38
2018-09-29T04:48:01.946Z,10.39
2018-09-29T04:49:02.251Z,10.42
2018-09-29T04:50:02.034Z,10.37
2018-09-29T04:51:02.072Z,10.38
2018-09-29T04:52:01.971Z,10.37
2018-09-29T04:53:02.022Z,10.38
2018-09-29T04:54:02.163Z,10.42
2018-09-29T04:55:02.139Z,10.45
2018-09-29T04:56:01.980Z,10.47
2018-09-29T04:57:02.114Z,10.45
2018-09-29T04:58:02.133Z,10.47
2018-09-29T04:59:02.033Z,10.41
2018-09-29T05:00:02.148Z,10.28
2018-09-29T05:01:02.110Z,10.2
2018-09-29T05:02:02.078Z,10.24
2018-09-29T05:03:02.021Z,10.27
2018-09-29T05:04:02.170Z,10.28
2018-09-29T05:05:02.018Z,10.34
2018-09-29T05:06:02.247Z,10.3
2018-09-29T05:07:02.024Z,10.14
2018-09-29T05:08:01.988Z,10.23
2018-09-29T05:09:02.106Z,10.28
2018-09-29T05:10:01.964Z,10.31
2018-09-29T05:11:01.985Z,10.37
2018-09-29T05:12:01.963Z,10.38
2018-09-29T05:13:01.990Z,10.44
2018-09-29T05:14:02.240Z,10.42
2018-09-29T05:15:02.047Z,10.47
2018-09-29T05:16:01.992Z,10.48
2018-09-29T05:17:01.975Z,10.49
2018-09-29T05:18:01.994Z,10.49
2018-09-29T05:19:01.932Z,10.49
2018-09-29T05:20:02.081Z,10.51
2018-09-29T05:21:01.992Z,10.53
2018-09-29T05:22:01.927Z,10.52
2018-09-29T05:23:02.104Z,10.58
2018-09-29T05:24:01.973Z,10.53
2018-09-29T05:25:01.985Z,10.51
2018-09-29T05:26:01.927Z,10.53
2018-09-29T05:27:02.074Z,10.52
2018-09-29T05:28:01.968Z,10.49
2018-09-29T05:29:02.214Z,10.53
2018-09-29T05:30:01.962Z,10.53
2018-09-29T05:31:02.158Z,10.52
2018-09-29T05:32:01.963Z,10.53
2018-09-29T05:33:01.937Z,10.51
2018-09-29T05:34:01.980Z,10.45
2018-09-29T05:35:01.919Z,10.45
2018-09-29T05:36:02.267Z,10.42
2018-09-29T05:37:02.302Z,10.42
2018-09-29T05:38:02.019Z,10.41
2018-09-29T05:39:02.278Z,10.38
2018-09-29T05:40:02.192Z,10.41
2018-09-29T05:41:02.300Z,10.41
2018-09-29T05:42:01.921Z,10.41
2018-09-29T05:43:01.881Z,10.42
2018-09-29T05:44:02.181Z,10.38
2018-09-29T05:45:02.293Z,10.27
2018-09-29T05:46:01.961Z,10.2
2018-09-29T05:47:02.128Z,10.23
2018-09-29T05:48:01.934Z,10.2
2018-09-29T05:49:01.983Z,10.17
2018-09-29T05:50:01.970Z,10.17
2018-09-29T05:51:02.055Z,10.23
2018-09-29T05:52:01.881Z,10.23
2018-09-29T05:53:02.156Z,10.24
2018-09-29T05:54:02.297Z,10.27
2018-09-29T05:55:01.953Z,10.25
2018-09-29T05:56:02.010Z,10.27
2018-09-29T05:57:01.862Z,10.25
2018-09-29T05:58:02.136Z,10.27
2018-09-29T05:59:01.956Z,10.27
2018-09-29T06:00:02.030Z,10.28
2018-09-29T06:01:02.029Z,10.27
2018-09-29T06:02:01.976Z,10.25
2018-09-29T06:03:02.287Z,10.23
2018-09-29T06:04:02.135Z,10.27
2018-09-29T06:05:02.710Z,10.27
2018-09-29T06:06:02.149Z,10.3
2018-09-29T06:07:02.270Z,10.31
2018-09-29T06:08:02.158Z,10.3
2018-09-29T06:09:02.017Z,10.28
2018-09-29T06:10:02.245Z,10.31
2018-09-29T06:11:01.993Z,10.31
2018-09-29T06:12:02.016Z,10.3
2018-09-29T06:13:02.197Z,10.32
2018-09-29T06:14:01.990Z,10.35
2018-09-29T06:15:01.840Z,10.1
2018-09-29T06:16:02.066Z,10.14
2018-09-29T06:17:02.206Z,10.2
2018-09-29T06:18:01.852Z,10.23
2018-09-29T06:19:02.068Z,10.24
2018-09-29T06:20:02.215Z,10.17
2018-09-29T06:21:02.224Z,10.13
2018-09-29T06:22:02.046Z,10.11
2018-09-29T06:23:01.942Z,10.14
2018-09-29T06:24:02.152Z,10.11
2018-09-29T06:25:01.863Z,9.9
2018-09-29T06:26:02.067Z,9.9
2018-09-29T06:27:02.019Z,9.85
2018-09-29T06:28:02.167Z,9.96
2018-09-29T06:29:02.118Z,10.02
2018-09-29T06:30:02.031Z,10.06
2018-09-29T06:31:02.030Z,10.13
2018-09-29T06:32:02.210Z,10.2
2018-09-29T06:33:01.874Z,10.25
2018-09-29T06:34:02.059Z,10.27
2018-09-29T06:35:01.846Z,10.28
2018-09-29T06:36:02.141Z,10.2
2018-09-29T06:37:02.073Z,10.17
2018-09-29T06:38:01.806Z,10.14
2018-09-29T06:39:02.230Z,10.2
2018-09-29T06:40:01.821Z,10.25
2018-09-29T06:41:02.007Z,10.3
2018-09-29T06:42:01.820Z,10.38
2018-09-29T06:43:02.195Z,10.28
2018-09-29T06:44:01.805Z,10.17
2018-09-29T06:45:01.807Z,10.16
2018-09-29T06:46:01.799Z,10.23
2018-09-29T06:47:01.807Z,10.21
2018-09-29T06:48:01.929Z,10.24
2018-09-29T06:49:01.754Z,10.32
2018-09-29T06:50:01.836Z,10.37
2018-09-29T06:51:01.976Z,10.41
2018-09-29T06:52:01.799Z,10.39
2018-09-29T06:53:01.777Z,10.25
2018-09-29T06:54:02.057Z,10.2
2018-09-29T06:55:01.825Z,10.27
2018-09-29T06:56:01.792Z,10.32
2018-09-29T06:57:01.776Z,10.39
2018-09-29T06:58:03.770Z,10.44
2018-09-29T06:59:02.055Z,10.49
2018-09-29T07:00:01.758Z,10.35
2018-09-29T07:01:01.907Z,10.3
2018-09-29T07:02:01.774Z,10.34
2018-09-29T07:03:02.029Z,10.38
2018-09-29T07:04:01.947Z,10.44
2018-09-29T07:05:02.272Z,10.48
2018-09-29T07:06:01.840Z,10.51
2018-09-29T07:07:01.808Z,10.53
2018-09-29T07:08:01.916Z,10.55
2018-09-29T07:09:01.785Z,10.59
2018-09-29T07:10:01.756Z,10.58
2018-09-29T07:11:01.879Z,10.62
2018-09-29T07:12:01.797Z,10.61
2018-09-29T07:13:02.163Z,10.69
2018-09-29T07:14:01.923Z,10.65
2018-09-29T07:15:01.801Z,10.64
2018-09-29T07:16:01.866Z,10.71
2018-09-29T07:17:01.733Z,10.78
2018-09-29T07:18:01.781Z,10.83
2018-09-29T07:19:01.865Z,10.83
2018-09-29T07:20:01.876Z,10.79
2018-09-29T07:21:01.772Z,10.83
2018-09-29T07:22:02.047Z,10.86
2018-09-29T07:23:01.755Z,10.83
2018-09-29T07:24:01.767Z,10.83
2018-09-29T07:25:01.896Z,10.86
2018-09-29T07:26:01.962Z,10.86
2018-09-29T07:27:01.801Z,10.92
2018-09-29T07:28:01.753Z,10.94
2018-09-29T07:29:01.993Z,10.99
2018-09-29T07:30:01.814Z,11.04
2018-09-29T07:31:02.008Z,11.07
2018-09-29T07:32:01.819Z,11.08
2018-09-29T07:33:01.963Z,11.12
2018-09-29T07:34:01.860Z,11.15
2018-09-29T07:35:01.739Z,11.18
2018-09-29T07:36:01.762Z,11.14
2018-09-29T07:37:01.974Z,11.2
2018-09-29T07:38:01.715Z,11.18
2018-09-29T07:39:02.115Z,11.22
2018-09-29T07:40:01.773Z,11.22
2018-09-29T07:41:01.986Z,11.25
2018-09-29T07:42:01.880Z,11.28
2018-09-29T07:43:01.782Z,11.3
2018-09-29T07:44:02.102Z,11.34
2018-09-29T07:45:01.983Z,11.35
2018-09-29T07:46:01.765Z,11.35
2018-09-29T07:47:01.720Z,11.38
2018-09-29T07:48:01.708Z,11.41
2018-09-29T07:49:02.101Z,11.47
2018-09-29T07:50:01.740Z,11.52
2018-09-29T07:51:01.725Z,11.58
2018-09-29T07:52:01.716Z,11.59
2018-09-29T07:53:01.692Z,11.65
2018-09-29T07:54:01.934Z,11.68
2018-09-29T07:55:02.004Z,11.68
2018-09-29T07:56:01.892Z,11.75
2018-09-29T07:57:01.716Z,11.75
2018-09-29T07:58:01.854Z,11.83
2018-09-29T07:59:01.733Z,11.86
2018-09-29T08:00:01.934Z,11.89
2018-09-29T08:01:01.903Z,11.9
2018-09-29T08:02:01.734Z,11.9
2018-09-29T08:03:01.702Z,11.93
2018-09-29T08:04:01.688Z,11.97
2018-09-29T08:05:01.651Z,12.01
2018-09-29T08:06:01.661Z,12.05
2018-09-29T08:07:01.698Z,12.07
2018-09-29T08:08:01.692Z,12.08
2018-09-29T08:09:01.725Z,12.07
2018-09-29T08:10:01.709Z,12.08
2018-09-29T08:11:01.681Z,12.07
2018-09-29T08:12:01.744Z,12.08
2018-09-29T08:13:01.648Z,12.13
2018-09-29T08:14:01.655Z,12.16
2018-09-29T08:15:01.662Z,12.11
2018-09-29T08:16:01.670Z,12.1
2018-09-29T08:17:01.679Z,12.05
2018-09-29T08:18:01.671Z,12.08
2018-09-29T08:19:01.671Z,12.11
2018-09-29T08:20:01.743Z,12.11
2018-09-29T08:21:01.653Z,12.14
2018-09-29T08:22:01.650Z,12.18
2018-09-29T08:23:01.658Z,12.24
2018-09-29T08:24:02.166Z,12.32
2018-09-29T08:25:01.656Z,12.34
2018-09-29T08:26:01.696Z,12.39
2018-09-29T08:27:02.074Z,12.39
2018-09-29T08:28:01.635Z,12.44
2018-09-29T08:29:01.629Z,12.41
2018-09-29T08:30:01.647Z,12.44
2018-09-29T08:31:01.863Z,12.49
2018-09-29T08:32:01.773Z,12.55
2018-09-29T08:33:01.940Z,12.59
2018-09-29T08:34:01.749Z,12.62
2018-09-29T08:35:01.653Z,12.69
2018-09-29T08:36:01.711Z,12.69
2018-09-29T08:37:01.782Z,12.7
2018-09-29T08:38:01.718Z,12.73
2018-09-29T08:39:01.628Z,12.72
2018-09-29T08:40:01.640Z,12.7
2018-09-29T08:41:01.787Z,12.67
2018-09-29T08:42:01.639Z,12.67
2018-09-29T08:43:01.666Z,12.74
2018-09-29T08:44:01.697Z,12.63
2018-09-29T08:45:01.964Z,12.62
2018-09-29T08:46:01.754Z,12.67
2018-09-29T08:47:01.638Z,12.72
2018-09-29T08:48:01.627Z,12.73
2018-09-29T08:49:01.675Z,12.77
2018-09-29T08:50:01.820Z,12.79
2018-09-29T08:51:02.024Z,12.72
2018-09-29T08:52:01.961Z,12.77
2018-09-29T08:53:01.726Z,12.79
2018-09-29T08:54:01.716Z,12.87
2018-09-29T08:55:01.798Z,12.94
2018-09-29T08:56:02.273Z,13.01
2018-09-29T08:57:01.637Z,12.97
2018-09-29T08:58:01.673Z,13
2018-09-29T08:59:01.754Z,13.07
2018-09-29T09:00:01.718Z,13.07
2018-09-29T09:01:01.625Z,13.13
2018-09-29T09:02:01.746Z,13.18
2018-09-29T09:03:01.744Z,13.19
2018-09-29T09:04:02.256Z,13.25
2018-09-29T09:05:01.576Z,13.25
2018-09-29T09:06:01.658Z,13.29
2018-09-29T09:07:01.573Z,13.34
2018-09-29T09:08:01.615Z,13.41
2018-09-29T09:09:01.647Z,13.46
2018-09-29T09:10:01.686Z,13.53
2018-09-29T09:11:01.921Z,13.57
2018-09-29T09:12:01.612Z,13.6
2018-09-29T09:13:01.627Z,13.57
2018-09-29T09:14:01.949Z,13.55
2018-09-29T09:15:01.698Z,13.57
2018-09-29T09:16:01.703Z,13.57
2018-09-29T09:17:02.062Z,13.62
2018-09-29T09:18:01.622Z,13.66
2018-09-29T09:19:01.571Z,13.64
2018-09-29T09:20:01.581Z,13.64
2018-09-29T09:21:01.730Z,13.69
2018-09-29T09:22:01.630Z,13.66
2018-09-29T09:23:01.789Z,13.62
2018-09-29T09:24:01.667Z,13.63
2018-09-29T09:25:01.697Z,13.64
2018-09-29T09:26:01.556Z,13.64
2018-09-29T09:27:01.675Z,13.63
2018-09-29T09:28:01.792Z,13.66
2018-09-29T09:29:01.661Z,13.69
2018-09-29T09:30:01.692Z,13.69
2018-09-29T09:31:01.564Z,13.6
2018-09-29T09:32:01.694Z,13.59
2018-09-29T09:33:01.601Z,13.6
2018-09-29T09:34:01.557Z,13.66
2018-09-29T09:35:01.588Z,13.7
2018-09-29T09:36:01.542Z,13.83
2018-09-29T09:37:01.639Z,13.84
2018-09-29T09:38:01.605Z,13.83
2018-09-29T09:39:01.611Z,13.82
2018-09-29T09:40:01.590Z,13.83
2018-09-29T09:41:01.543Z,13.86
2018-09-29T09:42:01.546Z,13.87
2018-09-29T09:43:01.608Z,13.89
2018-09-29T09:44:01.543Z,13.89
2018-09-29T09:45:01.573Z,13.9
2018-09-29T09:46:01.526Z,13.93
2018-09-29T09:47:01.596Z,13.97
2018-09-29T09:48:01.615Z,13.97
2018-09-29T09:50:01.945Z,14.01
2018-09-29T09:51:01.644Z,13.96
2018-09-29T09:52:01.539Z,13.98
2018-09-29T09:53:01.551Z,14.05
2018-09-29T09:54:01.603Z,14.1
2018-09-29T09:55:01.666Z,14.14
2018-09-29T09:56:01.844Z,14.18
2018-09-29T09:57:01.575Z,14.24
2018-09-29T09:58:01.626Z,14.28
2018-09-29T09:59:03.155Z,14.32
2018-09-29T10:00:03.807Z,14.36
2018-09-29T10:01:01.518Z,14.31
2018-09-29T10:02:01.530Z,14.28
2018-09-29T10:03:01.815Z,14.29
2018-09-29T10:04:01.615Z,14.24
2018-09-29T10:05:01.573Z,14.27
2018-09-29T10:06:01.603Z,14.21
2018-09-29T10:07:01.530Z,14.21
2018-09-29T10:08:01.758Z,14.19
2018-09-29T10:09:01.626Z,14.17
2018-09-29T10:10:01.564Z,14.21
2018-09-29T10:11:01.572Z,14.27
2018-09-29T10:12:01.546Z,14.35
2018-09-29T10:13:01.625Z,14.4
2018-09-29T10:14:02.168Z,14.52
2018-09-29T10:15:01.518Z,14.45
2018-09-29T10:16:01.575Z,14.48
2018-09-29T10:17:01.643Z,14.56
2018-09-29T10:18:01.555Z,14.58
2018-09-29T10:19:01.530Z,14.63
2018-09-29T10:20:01.697Z,14.69
2018-09-29T10:21:01.531Z,14.73
2018-09-29T10:22:01.569Z,14.73
2018-09-29T10:23:01.657Z,14.76
2018-09-29T10:24:01.526Z,14.77
2018-09-29T10:25:02.600Z,14.81
2018-09-29T10:26:01.780Z,14.87
2018-09-29T10:27:01.596Z,14.9
2018-09-29T10:28:01.528Z,14.91
2018-09-29T10:29:01.560Z,14.94
2018-09-29T10:30:01.498Z,15.04
2018-09-29T10:31:01.535Z,14.97
2018-09-29T10:32:01.676Z,14.86
2018-09-29T10:33:01.588Z,14.8
2018-09-29T10:34:01.597Z,14.8
2018-09-29T10:35:01.692Z,14.84
2018-09-29T10:36:01.481Z,14.91
2018-09-29T10:37:01.503Z,15.02
2018-09-29T10:38:01.513Z,15.05
2018-09-29T10:39:01.658Z,15.17
2018-09-29T10:40:01.780Z,15.19
2018-09-29T10:41:01.660Z,15.26
2018-09-29T10:42:01.492Z,15.25
2018-09-29T10:43:01.657Z,15.25
2018-09-29T10:44:01.688Z,15.28
2018-09-29T10:45:01.599Z,15.38
2018-09-29T10:46:01.921Z,15.42
2018-09-29T10:47:01.593Z,15.43
2018-09-29T10:48:01.944Z,15.46
2018-09-29T10:49:01.535Z,15.46
2018-09-29T10:50:01.688Z,15.29
2018-09-29T10:51:01.577Z,15.39
2018-09-29T10:52:01.648Z,15.42
2018-09-29T10:53:02.083Z,15.47
2018-09-29T10:54:01.544Z,15.54
2018-09-29T10:55:01.532Z,15.56
2018-09-29T10:56:01.469Z,15.57
2018-09-29T10:57:01.508Z,15.59
2018-09-29T10:58:01.498Z,15.64
2018-09-29T10:59:01.583Z,15.67
2018-09-29T11:00:01.579Z,15.73
2018-09-29T11:01:01.476Z,15.74
2018-09-29T11:02:01.530Z,15.81
2018-09-29T11:03:01.568Z,15.85
2018-09-29T11:04:01.569Z,15.88
2018-09-29T11:05:01.836Z,15.88
2018-09-29T11:06:01.862Z,15.88
2018-09-29T11:07:01.488Z,15.92
2018-09-29T11:08:01.573Z,15.94
2018-09-29T11:09:01.470Z,15.92
2018-09-29T11:10:01.568Z,15.98
2018-09-29T11:11:02.107Z,15.98
2018-09-29T11:12:01.480Z,15.91
2018-09-29T11:13:01.463Z,15.95
2018-09-29T11:14:01.464Z,15.94
2018-09-29T11:15:01.466Z,15.95
2018-09-29T11:16:01.581Z,16.04
2018-09-29T11:17:01.465Z,15.95
2018-09-29T11:18:01.477Z,15.88
2018-09-29T11:19:01.467Z,15.91
2018-09-29T11:20:01.535Z,15.92
2018-09-29T11:21:02.032Z,15.91
2018-09-29T11:22:01.459Z,15.88
2018-09-29T11:23:01.412Z,15.91
2018-09-29T11:24:01.700Z,15.87
2018-09-29T11:25:01.466Z,15.95
2018-09-29T11:26:01.469Z,15.99
2018-09-29T11:27:01.502Z,15.98
2018-09-29T11:28:01.608Z,16.02
2018-09-29T11:29:01.531Z,16.11
2018-09-29T11:30:01.669Z,16.08
2018-09-29T11:31:01.707Z,16.14
2018-09-29T11:32:01.438Z,16.19
2018-09-29T11:33:01.549Z,16.15
2018-09-29T11:34:01.400Z,16.19
2018-09-29T11:35:01.620Z,16.26
2018-09-29T11:36:01.566Z,16.36
2018-09-29T11:37:01.515Z,16.42
2018-09-29T11:38:02.006Z,16.46
2018-09-29T11:39:01.550Z,16.54
2018-09-29T11:40:01.466Z,16.63
2018-09-29T11:41:01.564Z,16.62
2018-09-29T11:42:01.573Z,16.59
2018-09-29T11:43:01.769Z,16.5
2018-09-29T11:44:01.521Z,16.47
2018-09-29T11:45:01.459Z,16.49
2018-09-29T11:46:01.558Z,16.52
2018-09-29T11:47:02.387Z,16.57
2018-09-29T11:48:01.426Z,16.57
2018-09-29T11:49:01.551Z,16.66
2018-09-29T11:50:01.566Z,16.67
2018-09-29T11:51:01.461Z,16.68
2018-09-29T11:52:01.617Z,16.68
2018-09-29T11:53:01.781Z,16.67
2018-09-29T11:54:01.513Z,16.73
2018-09-29T11:55:01.735Z,16.74
2018-09-29T11:56:01.896Z,16.74
2018-09-29T11:57:01.465Z,16.7
2018-09-29T11:58:01.457Z,16.68
2018-09-29T11:59:01.417Z,16.71
2018-09-29T12:00:01.397Z,16.63
2018-09-29T12:01:01.522Z,16.5
2018-09-29T12:02:01.641Z,16.5
2018-09-29T12:03:01.486Z,16.42
2018-09-29T12:04:01.556Z,16.46
2018-09-29T12:05:01.589Z,16.45
2018-09-29T12:06:02.020Z,16.47
2018-09-29T12:07:01.593Z,16.46
2018-09-29T12:08:01.872Z,16.52
2018-09-29T12:09:01.403Z,16.56
2018-09-29T12:10:01.852Z,16.56
2018-09-29T12:11:01.373Z,16.6
2018-09-29T12:12:01.437Z,16.63
2018-09-29T12:13:01.423Z,16.66
2018-09-29T12:14:01.794Z,16.67
2018-09-29T12:15:01.377Z,16.7
2018-09-29T12:16:01.332Z,16.74
2018-09-29T12:17:02.306Z,16.78
2018-09-29T12:18:01.453Z,16.81
2018-09-29T12:19:01.495Z,16.84
2018-09-29T12:20:01.552Z,16.73
2018-09-29T12:21:01.641Z,16.66
2018-09-29T12:22:01.411Z,16.68
2018-09-29T12:23:02.512Z,16.71
2018-09-29T12:24:01.559Z,16.8
2018-09-29T12:25:02.383Z,16.9
2018-09-29T12:26:01.561Z,16.91
2018-09-29T12:27:01.565Z,16.8
2018-09-29T12:28:01.884Z,16.67
2018-09-29T12:29:01.684Z,16.71
2018-09-29T12:30:01.437Z,16.71
2018-09-29T12:31:01.697Z,16.74
2018-09-29T12:32:01.818Z,16.8
2018-09-29T12:33:03.961Z,16.83
2018-09-29T12:34:01.394Z,16.92
2018-09-29T12:35:01.534Z,16.92
2018-09-29T12:36:01.512Z,16.91
2018-09-29T12:37:56.613Z,16.88
2018-09-29T12:38:56.951Z,16.94
2018-09-29T12:39:57.994Z,16.99
2018-09-29T12:40:56.977Z,16.91
2018-09-29T12:41:56.960Z,16.9
2018-09-29T12:42:58.016Z,16.91
2018-09-29T12:43:57.795Z,16.91
2018-09-29T12:44:57.357Z,16.88
2018-09-29T12:45:56.990Z,16.91
2018-09-29T12:46:56.998Z,16.95
2018-09-29T12:47:56.904Z,16.94
2018-09-29T12:48:56.777Z,16.99
2018-09-29T12:49:56.926Z,16.99
2018-09-29T12:50:56.934Z,17.08
2018-09-29T12:51:57.081Z,17.05
2018-09-29T12:52:57.165Z,17.02
2018-09-29T12:53:57.147Z,17.04
2018-09-29T12:54:56.831Z,17.04
2018-09-29T12:55:56.959Z,17.05
2018-09-29T12:56:57.062Z,17.09